NCAR-RAP Real-Time Weather Data

Output produced by METARs form (12 August 2020  18:58 UTC)
found at http://weather.rap.ucar.edu/surface/
 
KMFI 121854Z AUTO 17008KT 10SM CLR 27/15 A3013 RMK AO2 SLP199 T02720150
KMFI 121754Z AUTO 22009KT 10SM CLR 27/15 A3013 RMK AO2 SLP198 T02670150 10272 20144 50014
KMFI 121654Z AUTO 18009KT 10SM CLR 27/14 A3014 RMK AO2 SLP201 T02670144
KMFI 121554Z AUTO 18006KT 10SM CLR 26/14 A3011 RMK AO2 SLP192 T02560139
KMFI 121454Z AUTO 16005KT 10SM CLR 24/15 A3009 RMK AO2 SLP182 T02440150 58007 $
KMFI 121354Z AUTO 13003KT 10SM 23/15 A3010 RMK AO2 SLP187 T02280150 TSNO $
KMFI 121254Z AUTO 09003KT 10SM CLR 19/14 A3010 RMK AO2 SLP189 T01940139 TSNO
KMFI 121154Z AUTO 00000KT 10SM CLR 14/13 A3011 RMK AO2 SLP192 T01440128 10183 20139 51010 TSNO
KMFI 121054Z AUTO 00000KT 10SM CLR 16/12 A3010 RMK AO2 SLP190 T01560122 TSNO
KMFI 120954Z AUTO 00000KT 10SM CLR 16/13 A3009 RMK AO2 SLP183 T01610128 TSNO
KMFI 120854Z AUTO 31004KT 10SM CLR 16/13 A3008 RMK AO2 SLP181 T01610133 53009
KMFI 120754Z AUTO 24004KT 10SM CLR 17/12 A3007 RMK AO2 SLP176 T01720122
KMFI 120654Z AUTO 00000KT 10SM CLR 14/12 A3006 RMK AO2 SLP173 T01440122
KMFI 120554Z AUTO 00000KT 10SM CLR 16/13 A3005 RMK AO2 SLP171 T01560128 10256 20150 402780106 53008
KMFI 120454Z AUTO 00000KT 10SM CLR 17/13 A3003 RMK AO2 SLP167 T01670128
KMFI 120354Z AUTO 00000KT 10SM CLR 17/13 A3003 RMK AO2 SLP167 T01720133
KMFI 120254Z AUTO 00000KT 10SM CLR 19/14 A3003 RMK AO2 SLP164 T01940139 53007
KMFI 120154Z AUTO 23004KT 10SM CLR 20/15 A3002 RMK AO2 SLP163 T02000150
KMFI 120054Z AUTO 22004KT 10SM CLR 23/14 A3000 RMK AO2 SLP158 T02330144
KMFI 112354Z AUTO 24005KT 10SM CLR 26/13 A3000 RMK AO2 SLP157 T02560133 10278 20256 58001
KMFI 112254Z AUTO 25005KT 10SM CLR 27/12 A3001 RMK AO2 SLP157 T02720122